createdAt,value
2023-05-03T00:00:33.706Z,95165.00
2023-05-03T00:01:33.726Z,95165.00
2023-05-03T00:02:33.830Z,95165.00
2023-05-03T00:03:33.690Z,95167.00
2023-05-03T00:04:33.697Z,95164.00
2023-05-03T00:05:33.669Z,95165.00
2023-05-03T00:06:33.696Z,95165.00
2023-05-03T00:07:33.662Z,95164.00
2023-05-03T00:08:33.664Z,95160.00
2023-05-03T00:09:33.658Z,95160.00
2023-05-03T00:10:33.661Z,95160.00
2023-05-03T00:11:33.628Z,95158.00
2023-05-03T00:12:33.651Z,95148.00
2023-05-03T00:13:33.654Z,95160.00
2023-05-03T00:14:33.603Z,95158.00
2023-05-03T00:15:33.611Z,95158.00
2023-05-03T00:16:33.625Z,95160.00
2023-05-03T00:17:33.619Z,95158.00
2023-05-03T00:18:33.590Z,95160.00
2023-05-03T00:19:33.634Z,95150.00
2023-05-03T00:20:33.578Z,95158.00
2023-05-03T00:21:33.595Z,95158.00
2023-05-03T00:22:33.554Z,95158.00
2023-05-03T00:23:33.559Z,95150.00
2023-05-03T00:24:33.556Z,95150.00
2023-05-03T00:25:33.549Z,95150.00
2023-05-03T00:26:33.545Z,95150.00
2023-05-03T00:27:33.538Z,95158.00
2023-05-03T00:28:33.543Z,95150.00
2023-05-03T00:29:33.512Z,95150.00
2023-05-03T00:30:33.533Z,95150.00
2023-05-03T00:31:33.553Z,95148.00
2023-05-03T00:32:33.539Z,95150.00
2023-05-03T00:33:33.486Z,95150.00
2023-05-03T00:34:33.497Z,95150.00
2023-05-03T00:35:33.493Z,95150.00
2023-05-03T00:36:34.329Z,95150.00
2023-05-03T00:37:33.463Z,95150.00
2023-05-03T00:38:33.470Z,95150.00
2023-05-03T00:39:33.446Z,95160.00
2023-05-03T00:40:33.443Z,95158.00
2023-05-03T00:41:33.432Z,95150.00
2023-05-03T00:42:33.449Z,95150.00
2023-05-03T00:43:33.419Z,95148.00
2023-05-03T00:44:33.422Z,95148.00
2023-05-03T00:45:33.423Z,95148.00
2023-05-03T00:46:33.461Z,95146.00
2023-05-03T00:47:33.442Z,95148.00
2023-05-03T00:48:33.401Z,95148.00
2023-05-03T00:49:33.385Z,95150.00
2023-05-03T00:50:33.383Z,95146.00
2023-05-03T00:51:33.382Z,95148.00
2023-05-03T00:52:33.374Z,95148.00
2023-05-03T00:53:33.424Z,95150.00
2023-05-03T00:54:33.381Z,95148.00
2023-05-03T00:55:33.390Z,95158.00
2023-05-03T00:56:47.829Z,95158.00
2023-05-03T00:57:34.379Z,95148.00
2023-05-03T00:58:33.363Z,95150.00
2023-05-03T00:59:33.344Z,95150.00
2023-05-03T01:00:33.339Z,95148.00
2023-05-03T01:01:33.388Z,95148.00
2023-05-03T01:02:33.386Z,95148.00
2023-05-03T01:03:33.412Z,95146.00
2023-05-03T01:04:33.308Z,95148.00
2023-05-03T01:05:33.313Z,95146.00
2023-05-03T01:06:33.412Z,95148.00
2023-05-03T01:07:33.294Z,95146.00
2023-05-03T01:08:33.277Z,95148.00
2023-05-03T01:09:33.276Z,95146.00
2023-05-03T01:10:33.277Z,95144.00
2023-05-03T01:11:33.291Z,95144.00
2023-05-03T01:12:33.265Z,95144.00
2023-05-03T01:13:33.280Z,95142.00
2023-05-03T01:14:33.254Z,95142.00
2023-05-03T01:15:33.262Z,95142.00
2023-05-03T01:16:33.249Z,95142.00
2023-05-03T01:17:33.250Z,95144.00
2023-05-03T01:18:33.212Z,95140.00
2023-05-03T01:19:33.215Z,95142.00
2023-05-03T01:20:33.242Z,95142.00
2023-05-03T01:21:33.195Z,95140.00
2023-05-03T01:22:33.176Z,95142.00
2023-05-03T01:23:33.214Z,95144.00
2023-05-03T01:24:33.190Z,95142.00
2023-05-03T01:25:33.172Z,95140.00
2023-05-03T01:26:33.171Z,95142.00
2023-05-03T01:27:33.151Z,95138.00
2023-05-03T01:28:33.135Z,95140.00
2023-05-03T01:29:33.144Z,95138.00
2023-05-03T01:30:33.139Z,95140.00
2023-05-03T01:31:33.198Z,95138.00
2023-05-03T01:32:33.195Z,95138.00
2023-05-03T01:33:33.142Z,95136.00
2023-05-03T01:34:33.113Z,95136.00
2023-05-03T01:35:33.096Z,95136.00
2023-05-03T01:36:33.106Z,95136.00
2023-05-03T01:37:33.086Z,95136.00
2023-05-03T01:38:33.087Z,95138.00
2023-05-03T01:39:33.087Z,95138.00
2023-05-03T01:40:33.062Z,95138.00
2023-05-03T01:41:33.069Z,95138.00
2023-05-03T01:42:33.056Z,95140.00
2023-05-03T01:43:33.049Z,95138.00
2023-05-03T01:44:33.044Z,95142.00
2023-05-03T01:45:33.058Z,95142.00
2023-05-03T01:46:33.048Z,95142.00
2023-05-03T01:47:33.080Z,95140.00
2023-05-03T01:48:33.027Z,95142.00
2023-05-03T01:49:33.001Z,95142.00
2023-05-03T01:50:33.016Z,95140.00
2023-05-03T01:51:32.995Z,95142.00
2023-05-03T01:52:32.982Z,95140.00
2023-05-03T01:53:32.981Z,95144.00
2023-05-03T01:54:32.979Z,95142.00
2023-05-03T01:55:32.981Z,95144.00
2023-05-03T01:56:32.968Z,95142.00
2023-05-03T01:57:32.975Z,95140.00
2023-05-03T01:58:32.947Z,95142.00
2023-05-03T01:59:32.949Z,95142.00
2023-05-03T02:00:32.944Z,95142.00
2023-05-03T02:01:32.992Z,95140.00
2023-05-03T02:02:32.956Z,95140.00
2023-05-03T02:03:32.915Z,95140.00
2023-05-03T02:04:32.986Z,95138.00
2023-05-03T02:05:32.911Z,95140.00
2023-05-03T02:06:32.918Z,95140.00
2023-05-03T02:07:32.910Z,95138.00
2023-05-03T02:08:32.885Z,95140.00
2023-05-03T02:09:32.894Z,95140.00
2023-05-03T02:10:32.888Z,95138.00
2023-05-03T02:11:32.923Z,95138.00
2023-05-03T02:12:32.915Z,95140.00
2023-05-03T02:13:32.942Z,95138.00
2023-05-03T02:14:32.903Z,95138.00
2023-05-03T02:15:32.897Z,95140.00
2023-05-03T02:16:32.920Z,95142.00
2023-05-03T02:17:32.930Z,95142.00
2023-05-03T02:18:32.940Z,95142.00
2023-05-03T02:19:32.957Z,95142.00
2023-05-03T02:20:32.928Z,95144.00
2023-05-03T02:21:32.925Z,95144.00
2023-05-03T02:22:32.919Z,95146.00
2023-05-03T02:23:32.926Z,95146.00
2023-05-03T02:24:32.941Z,95146.00
2023-05-03T02:25:32.942Z,95148.00
2023-05-03T02:26:32.954Z,95146.00
2023-05-03T02:27:32.960Z,95146.00
2023-05-03T02:28:32.944Z,95146.00
2023-05-03T02:29:32.955Z,95146.00
2023-05-03T02:30:32.960Z,95146.00
2023-05-03T02:31:33.082Z,95144.00
2023-05-03T02:32:33.067Z,95142.00
2023-05-03T02:33:32.966Z,95144.00
2023-05-03T02:34:32.962Z,95144.00
2023-05-03T02:35:32.951Z,95146.00
2023-05-03T02:36:32.957Z,95144.00
2023-05-03T02:37:32.979Z,95142.00
2023-05-03T02:38:32.958Z,95144.00
2023-05-03T02:39:32.981Z,95144.00
2023-05-03T02:40:32.980Z,95144.00
2023-05-03T02:41:32.971Z,95142.00
2023-05-03T02:42:33.002Z,95146.00
2023-05-03T02:43:32.972Z,95142.00
2023-05-03T02:44:33.784Z,95142.00
2023-05-03T02:45:32.986Z,95144.00
2023-05-03T02:46:33.051Z,95142.00
2023-05-03T02:47:33.066Z,95142.00
2023-05-03T02:48:32.985Z,95142.00
2023-05-03T02:49:33.000Z,95142.00
2023-05-03T02:50:32.992Z,95142.00
2023-05-03T02:51:33.017Z,95144.00
2023-05-03T02:52:33.018Z,95144.00
2023-05-03T02:53:33.010Z,95144.00
2023-05-03T02:54:33.005Z,95144.00
2023-05-03T02:55:33.037Z,95146.00
2023-05-03T02:56:33.024Z,95144.00
2023-05-03T02:57:33.040Z,95146.00
2023-05-03T02:58:33.034Z,95150.00
2023-05-03T02:59:33.057Z,95148.00
2023-05-03T03:00:33.048Z,95150.00
2023-05-03T03:01:33.110Z,95148.00
2023-05-03T03:02:33.160Z,95148.00
2023-05-03T03:03:33.167Z,95150.00
2023-05-03T03:04:33.095Z,95150.00
2023-05-03T03:05:33.078Z,95158.00
2023-05-03T03:06:33.124Z,95158.00
2023-05-03T03:07:33.114Z,95150.00
2023-05-03T03:08:33.110Z,95148.00
2023-05-03T03:09:33.122Z,95150.00
2023-05-03T03:10:33.120Z,95148.00
2023-05-03T03:11:33.146Z,95146.00
2023-05-03T03:12:33.166Z,95146.00
2023-05-03T03:13:33.192Z,95148.00
2023-05-03T03:14:33.149Z,95148.00
2023-05-03T03:15:33.174Z,95148.00
2023-05-03T03:16:33.247Z,95150.00
2023-05-03T03:17:33.222Z,95150.00
2023-05-03T03:18:33.193Z,95158.00
2023-05-03T03:19:33.204Z,95158.00
2023-05-03T03:20:33.196Z,95158.00
2023-05-03T03:21:33.217Z,95150.00
2023-05-03T03:22:33.217Z,95160.00
2023-05-03T03:23:33.228Z,95162.00
2023-05-03T03:24:33.231Z,95164.00
2023-05-03T03:25:33.224Z,95164.00
2023-05-03T03:26:33.234Z,95164.00
2023-05-03T03:27:33.225Z,95164.00
2023-05-03T03:28:33.236Z,95164.00
2023-05-03T03:29:33.243Z,95164.00
2023-05-03T03:30:33.248Z,95162.00
2023-05-03T03:31:33.358Z,95162.00
2023-05-03T03:32:33.288Z,95162.00
2023-05-03T03:33:33.367Z,95162.00
2023-05-03T03:34:33.274Z,95162.00
2023-05-03T03:35:33.287Z,95164.00
2023-05-03T03:36:33.278Z,95164.00
2023-05-03T03:37:33.312Z,95162.00
2023-05-03T03:38:33.317Z,95164.00
2023-05-03T03:39:33.321Z,95164.00
2023-05-03T03:40:33.321Z,95167.00
2023-05-03T03:41:33.321Z,95167.00
2023-05-03T03:42:33.339Z,95169.00
2023-05-03T03:43:33.358Z,95171.00
2023-05-03T03:44:33.332Z,95171.00
2023-05-03T03:45:33.355Z,95173.00
2023-05-03T03:46:33.388Z,95173.00
2023-05-03T03:47:33.436Z,95173.00
2023-05-03T03:48:33.376Z,95177.00
2023-05-03T03:49:33.403Z,95177.00
2023-05-03T03:50:33.428Z,95179.00
2023-05-03T03:51:33.392Z,95179.00
2023-05-03T03:52:33.442Z,95177.00
2023-05-03T03:53:33.407Z,95177.00
2023-05-03T03:54:33.432Z,95177.00
2023-05-03T03:55:33.427Z,95177.00
2023-05-03T03:56:33.445Z,95183.00
2023-05-03T03:57:33.470Z,95177.00
2023-05-03T03:58:33.434Z,95177.00
2023-05-03T03:59:33.438Z,95177.00
2023-05-03T04:00:33.444Z,95177.00
2023-05-03T04:01:33.459Z,95175.00
2023-05-03T04:02:33.743Z,95175.00
2023-05-03T04:03:33.531Z,95177.00
2023-05-03T04:04:33.531Z,95175.00
2023-05-03T04:05:33.506Z,95175.00
2023-05-03T04:06:33.545Z,95177.00
2023-05-03T04:07:33.556Z,95175.00
2023-05-03T04:08:33.519Z,95177.00
2023-05-03T04:09:33.526Z,95175.00
2023-05-03T04:10:33.539Z,95175.00
2023-05-03T04:11:33.530Z,95175.00
2023-05-03T04:12:33.533Z,95173.00
2023-05-03T04:13:33.561Z,95171.00
2023-05-03T04:14:33.553Z,95175.00
2023-05-03T04:15:33.581Z,95175.00
2023-05-03T04:16:33.675Z,95175.00
2023-05-03T04:17:33.641Z,95173.00
2023-05-03T04:18:33.608Z,95177.00
2023-05-03T04:19:33.608Z,95175.00
2023-05-03T04:20:33.625Z,95175.00
2023-05-03T04:21:33.633Z,95175.00
2023-05-03T04:22:33.667Z,95179.00
2023-05-03T04:23:33.649Z,95177.00
2023-05-03T04:24:33.642Z,95183.00
2023-05-03T04:25:33.652Z,95185.00
2023-05-03T04:26:33.662Z,95185.00
2023-05-03T04:27:33.688Z,95185.00
2023-05-03T04:28:33.728Z,95189.00
2023-05-03T04:29:33.699Z,95189.00
2023-05-03T04:30:33.764Z,95189.00
2023-05-03T04:31:33.725Z,95191.00
2023-05-03T04:32:33.759Z,95191.00
2023-05-03T04:33:33.737Z,95189.00
2023-05-03T04:34:33.747Z,95191.00
2023-05-03T04:35:33.772Z,95189.00
2023-05-03T04:36:33.786Z,95191.00
2023-05-03T04:37:33.789Z,95191.00
2023-05-03T04:38:33.803Z,95191.00
2023-05-03T04:39:33.781Z,95191.00
2023-05-03T04:40:33.804Z,95189.00
2023-05-03T04:41:33.823Z,95189.00
2023-05-03T04:42:33.815Z,95191.00
2023-05-03T04:43:33.814Z,95191.00
2023-05-03T04:44:33.837Z,95193.00
2023-05-03T04:45:33.843Z,95193.00
2023-05-03T04:46:33.891Z,95195.00
2023-05-03T04:47:33.945Z,95197.00
2023-05-03T04:48:33.896Z,95205.00
2023-05-03T04:49:33.884Z,95203.00
2023-05-03T04:50:33.918Z,95201.00
2023-05-03T04:51:33.918Z,95203.00
2023-05-03T04:52:33.954Z,95205.00
2023-05-03T04:53:33.945Z,95205.00
2023-05-03T04:54:33.944Z,95203.00
2023-05-03T04:55:33.956Z,95201.00
2023-05-03T04:56:33.960Z,95201.00
2023-05-03T04:57:33.988Z,95203.00
2023-05-03T04:58:33.986Z,95203.00
2023-05-03T04:59:34.002Z,95203.00
2023-05-03T05:00:34.006Z,95201.00
2023-05-03T05:01:34.055Z,95201.00
2023-05-03T05:02:34.057Z,95201.00
2023-05-03T05:03:34.088Z,95199.00
2023-05-03T05:04:34.058Z,95201.00
2023-05-03T05:05:34.028Z,95199.00
2023-05-03T05:06:34.108Z,95201.00
2023-05-03T05:07:34.081Z,95201.00
2023-05-03T05:08:34.090Z,95203.00
2023-05-03T05:09:34.075Z,95201.00
2023-05-03T05:10:34.089Z,95201.00
2023-05-03T05:11:34.082Z,95203.00
2023-05-03T05:12:34.101Z,95201.00
2023-05-03T05:13:34.115Z,95199.00
2023-05-03T05:14:34.141Z,95199.00
2023-05-03T05:15:34.133Z,95201.00
2023-05-03T05:16:34.265Z,95201.00
2023-05-03T05:17:34.276Z,95201.00
2023-05-03T05:18:34.194Z,95195.00
2023-05-03T05:19:34.164Z,95197.00
2023-05-03T05:20:34.177Z,95197.00
2023-05-03T05:21:34.189Z,95197.00
2023-05-03T05:22:34.195Z,95197.00
2023-05-03T05:23:34.198Z,95201.00
2023-05-03T05:24:34.171Z,95199.00
2023-05-03T05:25:34.209Z,95203.00
2023-05-03T05:26:34.379Z,95205.00
2023-05-03T05:27:34.411Z,95203.00
2023-05-03T05:28:34.223Z,95205.00
2023-05-03T05:29:34.190Z,95207.00
2023-05-03T05:30:34.214Z,95205.00
2023-05-03T05:31:34.274Z,95207.00
2023-05-03T05:32:34.250Z,95207.00
2023-05-03T05:33:34.297Z,95207.00
2023-05-03T05:34:43.625Z,95207.00
2023-05-03T05:35:35.231Z,95207.00
2023-05-03T05:36:34.206Z,95209.00
2023-05-03T05:37:34.229Z,95207.00
2023-05-03T05:38:34.203Z,95211.00
2023-05-03T05:39:34.176Z,95211.00
2023-05-03T05:40:34.199Z,95214.00
2023-05-03T05:41:34.202Z,95212.00
2023-05-03T05:42:34.180Z,95211.00
2023-05-03T05:43:34.372Z,95211.00
2023-05-03T05:44:34.148Z,95212.00
2023-05-03T05:45:34.150Z,95212.00
2023-05-03T05:46:34.159Z,95214.00
2023-05-03T05:47:34.460Z,95214.00
2023-05-03T05:48:34.128Z,95218.00
2023-05-03T05:49:34.129Z,95220.00
2023-05-03T05:50:34.125Z,95218.00
2023-05-03T05:51:34.105Z,95216.00
2023-05-03T05:52:34.093Z,95216.00
2023-05-03T05:53:34.092Z,95218.00
2023-05-03T05:54:34.090Z,95216.00
2023-05-03T05:55:34.064Z,95220.00
2023-05-03T05:56:34.133Z,95216.00
2023-05-03T05:57:34.161Z,95216.00
2023-05-03T05:58:34.218Z,95216.00
2023-05-03T05:59:34.264Z,95216.00
2023-05-03T06:00:34.329Z,95218.00
2023-05-03T06:01:34.395Z,95216.00
2023-05-03T06:02:34.626Z,95216.00
2023-05-03T06:03:34.554Z,95218.00
2023-05-03T06:04:34.576Z,95220.00
2023-05-03T06:05:34.725Z,95218.00
2023-05-03T06:06:34.806Z,95222.00
2023-05-03T06:07:34.760Z,95222.00
2023-05-03T06:08:34.801Z,95222.00
2023-05-03T06:09:34.849Z,95218.00
2023-05-03T06:10:34.890Z,95220.00
2023-05-03T06:11:34.941Z,95218.00
2023-05-03T06:12:34.994Z,95218.00
2023-05-03T06:13:35.058Z,95220.00
2023-05-03T06:14:35.097Z,95218.00
2023-05-03T06:15:35.138Z,95218.00
2023-05-03T06:16:35.286Z,95218.00
2023-05-03T06:17:35.228Z,95218.00
2023-05-03T06:18:35.291Z,95216.00
2023-05-03T06:19:35.365Z,95216.00
2023-05-03T06:20:35.377Z,95212.00
2023-05-03T06:21:35.397Z,95211.00
2023-05-03T06:22:35.455Z,95211.00
2023-05-03T06:23:35.488Z,95211.00
2023-05-03T06:24:35.616Z,95211.00
2023-05-03T06:25:35.553Z,95212.00
2023-05-03T06:26:35.604Z,95211.00
2023-05-03T06:27:35.659Z,95209.00
2023-05-03T06:28:35.673Z,95207.00
2023-05-03T06:29:35.694Z,95212.00
2023-05-03T06:30:35.749Z,95211.00
2023-05-03T06:31:35.887Z,95203.00
2023-05-03T06:32:35.825Z,95205.00
2023-05-03T06:33:35.889Z,95211.00
2023-05-03T06:34:35.900Z,95205.00
2023-05-03T06:35:35.931Z,95205.00
2023-05-03T06:36:35.949Z,95205.00
2023-05-03T06:37:36.418Z,95209.00
2023-05-03T06:38:36.011Z,95209.00
2023-05-03T06:39:36.068Z,95211.00
2023-05-03T06:40:38.344Z,95214.00
2023-05-03T06:41:36.291Z,95212.00
2023-05-03T06:42:36.266Z,95212.00
2023-05-03T06:43:36.258Z,95212.00
2023-05-03T06:44:36.332Z,95211.00
2023-05-03T06:45:36.348Z,95212.00
2023-05-03T06:46:36.425Z,95212.00
2023-05-03T06:47:36.946Z,95211.00
2023-05-03T06:48:36.925Z,95209.00
2023-05-03T06:49:36.518Z,95211.00
2023-05-03T06:50:36.555Z,95212.00
2023-05-03T06:51:36.603Z,95209.00
2023-05-03T06:52:36.652Z,95209.00
2023-05-03T06:53:36.696Z,95207.00
2023-05-03T06:54:36.714Z,95207.00
2023-05-03T06:55:36.759Z,95207.00
2023-05-03T06:56:36.827Z,95211.00
2023-05-03T06:57:36.906Z,95207.00
2023-05-03T06:58:36.873Z,95211.00
2023-05-03T06:59:36.988Z,95209.00
2023-05-03T07:00:36.941Z,95209.00
2023-05-03T07:01:37.051Z,95209.00
2023-05-03T07:02:37.085Z,95207.00
2023-05-03T07:03:38.633Z,95205.00
2023-05-03T07:04:37.024Z,95205.00
2023-05-03T07:05:37.024Z,95205.00
2023-05-03T07:06:48.214Z,95203.00
2023-05-03T07:07:38.053Z,95207.00
2023-05-03T07:08:37.421Z,95207.00
2023-05-03T07:10:36.999Z,95201.00
2023-05-03T07:11:37.084Z,95203.00
2023-05-03T07:12:36.991Z,95201.00
2023-05-03T07:13:36.950Z,95201.00
2023-05-03T07:14:36.992Z,95199.00
2023-05-03T07:15:36.956Z,95199.00
2023-05-03T07:16:37.017Z,95199.00
2023-05-03T07:17:36.966Z,95201.00
2023-05-03T07:18:37.422Z,95197.00
2023-05-03T07:19:36.936Z,95193.00
2023-05-03T07:20:36.908Z,95197.00
2023-05-03T07:21:36.958Z,95195.00
2023-05-03T07:22:36.982Z,95195.00
2023-05-03T07:23:37.039Z,95191.00
2023-05-03T07:24:37.108Z,95191.00
2023-05-03T07:25:37.123Z,95193.00
2023-05-03T07:26:37.190Z,95189.00
2023-05-03T07:27:37.254Z,95189.00
2023-05-03T07:28:37.291Z,95189.00
2023-05-03T07:29:37.343Z,95193.00
2023-05-03T07:30:37.401Z,95187.00
2023-05-03T07:31:37.451Z,95185.00
2023-05-03T07:32:37.638Z,95189.00
2023-05-03T07:33:37.742Z,95187.00
2023-05-03T07:34:37.623Z,95185.00
2023-05-03T07:35:37.689Z,95183.00
2023-05-03T07:36:37.755Z,95185.00
2023-05-03T07:37:37.786Z,95177.00
2023-05-03T07:38:37.840Z,95185.00
2023-05-03T07:39:38.009Z,95181.00
2023-05-03T07:40:37.946Z,95187.00
2023-05-03T07:41:37.966Z,95185.00
2023-05-03T07:42:37.990Z,95187.00
2023-05-03T07:43:38.091Z,95185.00
2023-05-03T07:44:38.073Z,95183.00
2023-05-03T07:45:38.153Z,95185.00
2023-05-03T07:46:38.145Z,95185.00
2023-05-03T07:47:38.266Z,95181.00
2023-05-03T07:48:38.178Z,95181.00
2023-05-03T07:49:38.221Z,95179.00
2023-05-03T07:50:38.224Z,95181.00
2023-05-03T07:51:38.249Z,95181.00
2023-05-03T07:52:38.305Z,95177.00
2023-05-03T07:53:38.300Z,95175.00
2023-05-03T07:54:38.288Z,95173.00
2023-05-03T07:55:38.308Z,95173.00
2023-05-03T07:56:38.296Z,95177.00
2023-05-03T07:57:38.302Z,95175.00
2023-05-03T07:58:40.662Z,95177.00
2023-05-03T07:59:38.343Z,95177.00
2023-05-03T08:00:38.336Z,95175.00
2023-05-03T08:01:38.354Z,95175.00
2023-05-03T08:02:38.388Z,95175.00
2023-05-03T08:03:38.656Z,95175.00
2023-05-03T08:04:38.594Z,95175.00
2023-05-03T08:05:38.325Z,95173.00
2023-05-03T08:07:38.264Z,95171.00
2023-05-03T08:08:38.281Z,95169.00
2023-05-03T08:09:38.254Z,95167.00
2023-05-03T08:10:38.281Z,95165.00
2023-05-03T08:11:38.347Z,95165.00
2023-05-03T08:12:38.243Z,95165.00
2023-05-03T08:13:38.221Z,95162.00
2023-05-03T08:14:38.234Z,95162.00
2023-05-03T08:15:38.258Z,95164.00
2023-05-03T08:16:38.241Z,95162.00
2023-05-03T08:17:38.239Z,95162.00
2023-05-03T08:18:38.196Z,95162.00
2023-05-03T08:19:38.199Z,95162.00
2023-05-03T08:20:38.207Z,95160.00
2023-05-03T08:21:38.185Z,95150.00
2023-05-03T08:22:38.470Z,95150.00
2023-05-03T08:23:38.160Z,95146.00
2023-05-03T08:24:38.196Z,95146.00
2023-05-03T08:25:38.143Z,95144.00
2023-05-03T08:26:38.142Z,95146.00
2023-05-03T08:27:38.132Z,95142.00
2023-05-03T08:28:38.113Z,95144.00
2023-05-03T08:29:38.127Z,95138.00
2023-05-03T08:30:38.120Z,95138.00
2023-05-03T08:31:38.161Z,95134.00
2023-05-03T08:32:38.227Z,95132.00
2023-05-03T08:33:38.095Z,95130.00
2023-05-03T08:34:38.089Z,95130.00
2023-05-03T08:35:38.085Z,95130.00
2023-05-03T08:36:38.074Z,95128.00
2023-05-03T08:37:38.080Z,95130.00
2023-05-03T08:38:38.064Z,95130.00
2023-05-03T08:39:38.048Z,95132.00
2023-05-03T08:40:38.041Z,95126.00
2023-05-03T08:41:38.034Z,95132.00
2023-05-03T08:42:38.013Z,95132.00
2023-05-03T08:43:38.046Z,95130.00
2023-05-03T08:44:38.029Z,95134.00
2023-05-03T08:45:38.032Z,95134.00
2023-05-03T08:46:38.024Z,95130.00
2023-05-03T08:47:38.044Z,95138.00
2023-05-03T08:48:38.021Z,95134.00
2023-05-03T08:49:37.993Z,95136.00
2023-05-03T08:50:38.009Z,95134.00
2023-05-03T08:51:37.965Z,95138.00
2023-05-03T08:52:38.473Z,95134.00
2023-05-03T08:53:37.963Z,95134.00
2023-05-03T08:54:37.945Z,95134.00
2023-05-03T08:55:37.946Z,95132.00
2023-05-03T08:56:37.926Z,95132.00
2023-05-03T08:57:37.925Z,95132.00
2023-05-03T08:58:37.911Z,95134.00
2023-05-03T08:59:37.899Z,95130.00
2023-05-03T09:00:37.908Z,95136.00
2023-05-03T09:01:37.933Z,95134.00
2023-05-03T09:02:37.997Z,95130.00
2023-05-03T09:03:38.003Z,95126.00
2023-05-03T09:04:37.860Z,95128.00
2023-05-03T09:05:37.860Z,95126.00
2023-05-03T09:06:37.925Z,95126.00
2023-05-03T09:07:37.847Z,95128.00
2023-05-03T09:08:37.847Z,95130.00
2023-05-03T09:09:37.837Z,95124.00
2023-05-03T09:10:37.854Z,95122.00
2023-05-03T09:11:37.827Z,95126.00
2023-05-03T09:12:37.800Z,95126.00
2023-05-03T09:13:37.808Z,95122.00
2023-05-03T09:14:37.811Z,95126.00
2023-05-03T09:15:38.061Z,95124.00
2023-05-03T09:16:37.939Z,95126.00
2023-05-03T09:17:37.808Z,95122.00
2023-05-03T09:18:37.779Z,95120.00
2023-05-03T09:19:37.783Z,95120.00
2023-05-03T09:20:37.843Z,95124.00
2023-05-03T09:21:37.867Z,95118.00
2023-05-03T09:22:37.915Z,95118.00
2023-05-03T09:23:37.938Z,95114.00
2023-05-03T09:24:38.005Z,95112.00
2023-05-03T09:25:38.080Z,95111.00
2023-05-03T09:26:38.141Z,95111.00
2023-05-03T09:27:38.182Z,95105.00
2023-05-03T09:28:38.237Z,95107.00
2023-05-03T09:29:38.263Z,95105.00
2023-05-03T09:30:38.314Z,95099.00
2023-05-03T09:31:38.359Z,95099.00
2023-05-03T09:32:38.355Z,95105.00
2023-05-03T09:33:38.392Z,95103.00
2023-05-03T09:34:38.407Z,95101.00
2023-05-03T09:35:38.429Z,95103.00
2023-05-03T09:36:38.426Z,95099.00
2023-05-03T09:37:39.146Z,95101.00
2023-05-03T09:38:38.475Z,95099.00
2023-05-03T09:39:38.466Z,95095.00
2023-05-03T09:40:38.492Z,95095.00
2023-05-03T09:41:38.497Z,95095.00
2023-05-03T09:42:38.493Z,95095.00
2023-05-03T09:43:38.474Z,95093.00
2023-05-03T09:44:38.480Z,95093.00
2023-05-03T09:45:38.493Z,95089.00
2023-05-03T09:46:38.477Z,95091.00
2023-05-03T09:47:38.519Z,95085.00
2023-05-03T09:48:38.455Z,95083.00
2023-05-03T09:49:38.462Z,95081.00
2023-05-03T09:50:38.496Z,95081.00
2023-05-03T09:51:38.450Z,95077.00
2023-05-03T09:52:38.495Z,95075.00
2023-05-03T09:53:38.519Z,95075.00
2023-05-03T09:54:38.457Z,95073.00
2023-05-03T09:55:38.469Z,95073.00
2023-05-03T09:56:38.468Z,95073.00
2023-05-03T09:57:38.482Z,95071.00
2023-05-03T09:58:38.495Z,95073.00
2023-05-03T09:59:38.510Z,95067.00
2023-05-03T10:00:38.496Z,95069.00
2023-05-03T10:01:38.573Z,95067.00
2023-05-03T10:02:38.530Z,95064.00
2023-05-03T10:03:38.597Z,95065.00
2023-05-03T10:04:38.539Z,95067.00
2023-05-03T10:05:38.574Z,95062.00
2023-05-03T10:06:38.585Z,95062.00
2023-05-03T10:07:38.541Z,95062.00
2023-05-03T10:08:38.560Z,95060.00
2023-05-03T10:09:38.569Z,95058.00
2023-05-03T10:10:38.566Z,95058.00
2023-05-03T10:11:38.581Z,95050.00
2023-05-03T10:12:38.626Z,95050.00
2023-05-03T10:13:38.617Z,95048.00
2023-05-03T10:14:38.621Z,95048.00
2023-05-03T10:15:38.709Z,95044.00
2023-05-03T10:16:38.698Z,95042.00
2023-05-03T10:18:38.716Z,95040.00
2023-05-03T10:19:38.752Z,95042.00
2023-05-03T10:20:38.666Z,95036.00
2023-05-03T10:21:38.641Z,95038.00
2023-05-03T10:22:38.629Z,95032.00
2023-05-03T10:23:38.615Z,95034.00
2023-05-03T10:24:38.599Z,95032.00
2023-05-03T10:25:38.612Z,95032.00
2023-05-03T10:26:38.647Z,95032.00
2023-05-03T10:27:38.608Z,95028.00
2023-05-03T10:28:38.606Z,95028.00
2023-05-03T10:29:38.573Z,95030.00
2023-05-03T10:30:38.576Z,95026.00
2023-05-03T10:31:38.600Z,95028.00
2023-05-03T10:32:38.585Z,95024.00
2023-05-03T10:33:38.572Z,95022.00
2023-05-03T10:34:38.560Z,95026.00
2023-05-03T10:35:38.577Z,95022.00
2023-05-03T10:36:48.925Z,95020.00
2023-05-03T10:37:39.518Z,95024.00
2023-05-03T10:38:38.580Z,95018.00
2023-05-03T10:39:38.556Z,95017.00
2023-05-03T10:40:38.496Z,95022.00
2023-05-03T10:41:38.498Z,95020.00
2023-05-03T10:42:38.504Z,95018.00
2023-05-03T10:43:38.505Z,95018.00
2023-05-03T10:44:38.489Z,95015.00
2023-05-03T10:45:38.460Z,95018.00
2023-05-03T10:46:38.493Z,95015.00
2023-05-03T10:47:38.551Z,95015.00
2023-05-03T10:48:38.476Z,95011.00
2023-05-03T10:49:38.443Z,95011.00
2023-05-03T10:50:38.430Z,95009.00
2023-05-03T10:51:38.433Z,95011.00
2023-05-03T10:52:38.537Z,95005.00
2023-05-03T10:53:38.486Z,95001.00
2023-05-03T10:54:38.391Z,95003.00
2023-05-03T10:55:38.411Z,95001.00
2023-05-03T10:56:38.376Z,95003.00
2023-05-03T10:57:40.069Z,94995.00
2023-05-03T10:58:38.451Z,95001.00
2023-05-03T10:59:38.462Z,94999.00
2023-05-03T11:00:38.505Z,94995.00
2023-05-03T11:01:38.625Z,94997.00
2023-05-03T11:02:38.653Z,94995.00
2023-05-03T11:03:38.555Z,94997.00
2023-05-03T11:04:38.654Z,94997.00
2023-05-03T11:05:38.605Z,94997.00
2023-05-03T11:06:38.675Z,94993.00
2023-05-03T11:07:38.771Z,94995.00
2023-05-03T11:08:38.659Z,94991.00
2023-05-03T11:09:38.999Z,94993.00
2023-05-03T11:10:38.686Z,94991.00
2023-05-03T11:11:38.710Z,94995.00
2023-05-03T11:12:38.696Z,94987.00
2023-05-03T11:13:39.089Z,94987.00
2023-05-03T11:14:38.758Z,94985.00
2023-05-03T11:15:38.718Z,94987.00
2023-05-03T11:16:38.764Z,94987.00
2023-05-03T11:17:38.831Z,94983.00
2023-05-03T11:18:38.746Z,94985.00
2023-05-03T11:19:38.754Z,94989.00
2023-05-03T11:20:38.758Z,94987.00
2023-05-03T11:21:38.776Z,94985.00
2023-05-03T11:22:38.760Z,94983.00
2023-05-03T11:23:38.767Z,94989.00
2023-05-03T11:24:38.775Z,94985.00
2023-05-03T11:25:38.791Z,94981.00
2023-05-03T11:26:38.810Z,94979.00
2023-05-03T11:27:38.809Z,94979.00
2023-05-03T11:28:38.846Z,94979.00
2023-05-03T11:29:38.854Z,94979.00
2023-05-03T11:30:38.853Z,94979.00
2023-05-03T11:31:38.881Z,94979.00
2023-05-03T11:32:38.949Z,94981.00
2023-05-03T11:33:38.906Z,94983.00
2023-05-03T11:34:38.922Z,94981.00
2023-05-03T11:35:38.961Z,94983.00
2023-05-03T11:36:38.974Z,94983.00
2023-05-03T11:37:38.961Z,94983.00
2023-05-03T11:38:38.983Z,94981.00
2023-05-03T11:39:39.009Z,94983.00
2023-05-03T11:40:39.023Z,94981.00
2023-05-03T11:41:39.041Z,94981.00
2023-05-03T11:42:39.066Z,94981.00
2023-05-03T11:43:39.082Z,94983.00
2023-05-03T11:44:39.116Z,94983.00
2023-05-03T11:45:39.144Z,94979.00
2023-05-03T11:46:39.227Z,94979.00
2023-05-03T11:47:39.200Z,94979.00